sensor_id;sensor_type;location;lat;lon;timestamp;P1;durP1;ratioP1;P2;durP2;ratioP2
11646;SDS011;5880;52.342;9.662;2023-11-19T00:00:50;0.70;;;0.70;;
11646;SDS011;5880;52.342;9.662;2023-11-19T00:03:16;0.90;;;0.70;;
11646;SDS011;5880;52.342;9.662;2023-11-19T00:05:42;0.70;;;0.70;;
11646;SDS011;5880;52.342;9.662;2023-11-19T00:08:09;0.70;;;0.60;;
11646;SDS011;5880;52.342;9.662;2023-11-19T00:10:35;0.60;;;0.60;;
11646;SDS011;5880;52.342;9.662;2023-11-19T00:13:01;0.50;;;0.50;;
11646;SDS011;5880;52.342;9.662;2023-11-19T00:15:27;1.03;;;0.80;;
11646;SDS011;5880;52.342;9.662;2023-11-19T00:17:53;0.97;;;0.63;;
11646;SDS011;5880;52.342;9.662;2023-11-19T00:20:19;0.83;;;0.70;;
11646;SDS011;5880;52.342;9.662;2023-11-19T00:22:47;0.70;;;0.70;;
11646;SDS011;5880;52.342;9.662;2023-11-19T00:25:19;0.70;;;0.70;;
11646;SDS011;5880;52.342;9.662;2023-11-19T00:27:49;2.10;;;0.70;;
11646;SDS011;5880;52.342;9.662;2023-11-19T00:30:16;0.50;;;0.50;;
11646;SDS011;5880;52.342;9.662;2023-11-19T00:32:42;0.60;;;0.60;;
11646;SDS011;5880;52.342;9.662;2023-11-19T00:35:08;0.53;;;0.53;;
11646;SDS011;5880;52.342;9.662;2023-11-19T00:37:38;2.00;;;0.40;;
11646;SDS011;5880;52.342;9.662;2023-11-19T00:40:05;0.63;;;0.63;;
11646;SDS011;5880;52.342;9.662;2023-11-19T00:42:31;0.50;;;0.50;;
11646;SDS011;5880;52.342;9.662;2023-11-19T00:44:57;0.60;;;0.60;;
11646;SDS011;5880;52.342;9.662;2023-11-19T00:47:23;0.57;;;0.57;;
11646;SDS011;5880;52.342;9.662;2023-11-19T00:49:49;0.60;;;0.60;;
11646;SDS011;5880;52.342;9.662;2023-11-19T00:52:15;0.60;;;0.60;;
11646;SDS011;5880;52.342;9.662;2023-11-19T00:54:41;0.70;;;0.70;;
11646;SDS011;5880;52.342;9.662;2023-11-19T00:57:08;0.80;;;0.50;;
11646;SDS011;5880;52.342;9.662;2023-11-19T00:59:33;0.50;;;0.50;;
11646;SDS011;5880;52.342;9.662;2023-11-19T01:01:59;0.53;;;0.53;;
11646;SDS011;5880;52.342;9.662;2023-11-19T01:04:29;0.70;;;0.70;;
11646;SDS011;5880;52.342;9.662;2023-11-19T01:06:58;0.40;;;0.40;;
11646;SDS011;5880;52.342;9.662;2023-11-19T01:09:24;0.50;;;0.50;;
11646;SDS011;5880;52.342;9.662;2023-11-19T01:11:49;0.60;;;0.60;;
11646;SDS011;5880;52.342;9.662;2023-11-19T01:14:15;0.63;;;0.60;;
11646;SDS011;5880;52.342;9.662;2023-11-19T01:16:42;0.63;;;0.60;;
11646;SDS011;5880;52.342;9.662;2023-11-19T01:19:08;0.70;;;0.70;;
11646;SDS011;5880;52.342;9.662;2023-11-19T01:21:33;0.60;;;0.60;;
11646;SDS011;5880;52.342;9.662;2023-11-19T01:23:59;0.50;;;0.50;;
11646;SDS011;5880;52.342;9.662;2023-11-19T01:26:25;0.60;;;0.60;;
11646;SDS011;5880;52.342;9.662;2023-11-19T01:28:51;0.50;;;0.50;;
11646;SDS011;5880;52.342;9.662;2023-11-19T01:31:18;0.70;;;0.67;;
11646;SDS011;5880;52.342;9.662;2023-11-19T01:33:43;0.50;;;0.50;;
11646;SDS011;5880;52.342;9.662;2023-11-19T01:36:09;0.50;;;0.50;;
11646;SDS011;5880;52.342;9.662;2023-11-19T01:38:38;0.60;;;0.60;;
11646;SDS011;5880;52.342;9.662;2023-11-19T01:41:04;0.40;;;0.40;;
11646;SDS011;5880;52.342;9.662;2023-11-19T01:43:33;1.37;;;0.60;;
11646;SDS011;5880;52.342;9.662;2023-11-19T01:46:01;0.70;;;0.50;;
11646;SDS011;5880;52.342;9.662;2023-11-19T01:48:31;0.43;;;0.43;;
11646;SDS011;5880;52.342;9.662;2023-11-19T01:51:00;0.50;;;0.50;;
11646;SDS011;5880;52.342;9.662;2023-11-19T01:53:27;0.40;;;0.40;;
11646;SDS011;5880;52.342;9.662;2023-11-19T01:55:54;0.60;;;0.60;;
11646;SDS011;5880;52.342;9.662;2023-11-19T01:58:21;0.60;;;0.50;;
11646;SDS011;5880;52.342;9.662;2023-11-19T02:00:48;0.43;;;0.43;;
11646;SDS011;5880;52.342;9.662;2023-11-19T02:03:14;0.50;;;0.50;;
11646;SDS011;5880;52.342;9.662;2023-11-19T02:05:41;0.40;;;0.40;;
11646;SDS011;5880;52.342;9.662;2023-11-19T02:08:07;0.40;;;0.40;;
11646;SDS011;5880;52.342;9.662;2023-11-19T02:10:33;0.50;;;0.50;;
11646;SDS011;5880;52.342;9.662;2023-11-19T02:12:59;0.50;;;0.50;;
11646;SDS011;5880;52.342;9.662;2023-11-19T02:15:26;0.40;;;0.40;;
11646;SDS011;5880;52.342;9.662;2023-11-19T02:17:52;0.30;;;0.30;;
11646;SDS011;5880;52.342;9.662;2023-11-19T02:20:17;0.23;;;0.23;;
11646;SDS011;5880;52.342;9.662;2023-11-19T02:22:45;0.43;;;0.40;;
11646;SDS011;5880;52.342;9.662;2023-11-19T02:25:31;1.30;;;0.53;;
11646;SDS011;5880;52.342;9.662;2023-11-19T02:28:00;0.30;;;0.30;;
11646;SDS011;5880;52.342;9.662;2023-11-19T02:30:28;1.83;;;0.50;;
11646;SDS011;5880;52.342;9.662;2023-11-19T02:32:57;0.20;;;0.20;;
11646;SDS011;5880;52.342;9.662;2023-11-19T02:35:27;0.20;;;0.20;;
11646;SDS011;5880;52.342;9.662;2023-11-19T02:37:54;0.30;;;0.30;;
11646;SDS011;5880;52.342;9.662;2023-11-19T02:40:20;0.30;;;0.30;;
11646;SDS011;5880;52.342;9.662;2023-11-19T02:42:49;0.20;;;0.20;;
11646;SDS011;5880;52.342;9.662;2023-11-19T02:45:15;0.30;;;0.30;;
11646;SDS011;5880;52.342;9.662;2023-11-19T02:47:41;0.23;;;0.23;;
11646;SDS011;5880;52.342;9.662;2023-11-19T02:50:08;0.50;;;0.50;;
11646;SDS011;5880;52.342;9.662;2023-11-19T02:52:42;0.50;;;0.40;;
11646;SDS011;5880;52.342;9.662;2023-11-19T02:55:11;0.37;;;0.37;;
11646;SDS011;5880;52.342;9.662;2023-11-19T02:57:38;0.77;;;0.40;;
11646;SDS011;5880;52.342;9.662;2023-11-19T03:02:41;0.30;;;0.30;;
11646;SDS011;5880;52.342;9.662;2023-11-19T03:05:19;0.40;;;0.40;;
11646;SDS011;5880;52.342;9.662;2023-11-19T03:07:45;0.40;;;0.40;;
11646;SDS011;5880;52.342;9.662;2023-11-19T03:10:10;0.50;;;0.50;;
11646;SDS011;5880;52.342;9.662;2023-11-19T03:12:39;0.93;;;0.60;;
11646;SDS011;5880;52.342;9.662;2023-11-19T03:15:09;0.50;;;0.40;;
11646;SDS011;5880;52.342;9.662;2023-11-19T03:17:35;0.37;;;0.37;;
11646;SDS011;5880;52.342;9.662;2023-11-19T03:20:05;0.50;;;0.50;;
11646;SDS011;5880;52.342;9.662;2023-11-19T03:22:34;0.50;;;0.50;;
11646;SDS011;5880;52.342;9.662;2023-11-19T03:25:02;0.40;;;0.40;;
11646;SDS011;5880;52.342;9.662;2023-11-19T03:27:27;1.23;;;0.40;;
11646;SDS011;5880;52.342;9.662;2023-11-19T03:29:53;2.00;;;0.57;;
11646;SDS011;5880;52.342;9.662;2023-11-19T03:32:19;0.50;;;0.50;;
11646;SDS011;5880;52.342;9.662;2023-11-19T03:34:45;0.50;;;0.50;;
11646;SDS011;5880;52.342;9.662;2023-11-19T03:37:10;0.47;;;0.47;;
11646;SDS011;5880;52.342;9.662;2023-11-19T03:39:36;0.57;;;0.40;;
11646;SDS011;5880;52.342;9.662;2023-11-19T03:42:02;0.60;;;0.60;;
11646;SDS011;5880;52.342;9.662;2023-11-19T03:44:28;0.50;;;0.50;;
11646;SDS011;5880;52.342;9.662;2023-11-19T03:46:54;0.57;;;0.50;;
11646;SDS011;5880;52.342;9.662;2023-11-19T03:49:19;0.47;;;0.47;;
11646;SDS011;5880;52.342;9.662;2023-11-19T03:51:45;0.50;;;0.50;;
11646;SDS011;5880;52.342;9.662;2023-11-19T03:54:11;0.60;;;0.60;;
11646;SDS011;5880;52.342;9.662;2023-11-19T03:56:36;0.60;;;0.60;;
11646;SDS011;5880;52.342;9.662;2023-11-19T03:59:02;0.60;;;0.60;;
11646;SDS011;5880;52.342;9.662;2023-11-19T04:01:28;0.60;;;0.60;;
11646;SDS011;5880;52.342;9.662;2023-11-19T04:03:54;0.63;;;0.63;;
11646;SDS011;5880;52.342;9.662;2023-11-19T04:06:20;0.73;;;0.70;;
11646;SDS011;5880;52.342;9.662;2023-11-19T04:08:46;0.67;;;0.67;;
11646;SDS011;5880;52.342;9.662;2023-11-19T04:11:12;0.60;;;0.60;;
11646;SDS011;5880;52.342;9.662;2023-11-19T04:13:38;0.67;;;0.67;;
11646;SDS011;5880;52.342;9.662;2023-11-19T04:16:03;2.17;;;0.70;;
11646;SDS011;5880;52.342;9.662;2023-11-19T04:18:29;0.73;;;0.73;;
11646;SDS011;5880;52.342;9.662;2023-11-19T04:20:57;0.70;;;0.70;;
11646;SDS011;5880;52.342;9.662;2023-11-19T04:23:22;0.73;;;0.73;;
11646;SDS011;5880;52.342;9.662;2023-11-19T04:25:49;1.33;;;0.90;;
11646;SDS011;5880;52.342;9.662;2023-11-19T04:28:15;0.80;;;0.80;;
11646;SDS011;5880;52.342;9.662;2023-11-19T04:30:41;0.93;;;0.90;;
11646;SDS011;5880;52.342;9.662;2023-11-19T04:33:07;0.97;;;0.97;;
11646;SDS011;5880;52.342;9.662;2023-11-19T04:35:32;1.20;;;1.10;;
11646;SDS011;5880;52.342;9.662;2023-11-19T04:37:58;1.20;;;1.10;;
11646;SDS011;5880;52.342;9.662;2023-11-19T04:40:24;1.23;;;1.13;;
11646;SDS011;5880;52.342;9.662;2023-11-19T04:42:49;1.33;;;1.23;;
11646;SDS011;5880;52.342;9.662;2023-11-19T04:45:15;2.70;;;1.40;;
11646;SDS011;5880;52.342;9.662;2023-11-19T04:47:41;2.07;;;1.87;;
11646;SDS011;5880;52.342;9.662;2023-11-19T04:50:08;2.20;;;2.00;;
11646;SDS011;5880;52.342;9.662;2023-11-19T04:52:37;2.00;;;1.90;;
11646;SDS011;5880;52.342;9.662;2023-11-19T04:55:09;2.60;;;2.37;;
11646;SDS011;5880;52.342;9.662;2023-11-19T04:57:36;3.03;;;2.67;;
11646;SDS011;5880;52.342;9.662;2023-11-19T05:00:03;3.60;;;2.97;;
11646;SDS011;5880;52.342;9.662;2023-11-19T05:02:30;4.43;;;3.27;;
11646;SDS011;5880;52.342;9.662;2023-11-19T05:04:55;4.50;;;2.83;;
11646;SDS011;5880;52.342;9.662;2023-11-19T05:07:21;4.33;;;2.80;;
11646;SDS011;5880;52.342;9.662;2023-11-19T05:09:47;4.90;;;3.00;;
11646;SDS011;5880;52.342;9.662;2023-11-19T05:12:13;4.37;;;3.20;;
11646;SDS011;5880;52.342;9.662;2023-11-19T05:14:38;5.07;;;3.00;;
11646;SDS011;5880;52.342;9.662;2023-11-19T05:17:04;3.93;;;3.43;;
11646;SDS011;5880;52.342;9.662;2023-11-19T05:19:30;3.70;;;3.20;;
11646;SDS011;5880;52.342;9.662;2023-11-19T05:21:55;4.33;;;3.33;;
11646;SDS011;5880;52.342;9.662;2023-11-19T05:24:21;3.80;;;3.27;;
11646;SDS011;5880;52.342;9.662;2023-11-19T05:26:47;4.87;;;3.47;;
11646;SDS011;5880;52.342;9.662;2023-11-19T05:29:15;4.17;;;3.07;;
11646;SDS011;5880;52.342;9.662;2023-11-19T05:31:41;3.73;;;3.20;;
11646;SDS011;5880;52.342;9.662;2023-11-19T05:34:07;4.30;;;3.13;;
11646;SDS011;5880;52.342;9.662;2023-11-19T05:36:33;7.47;;;4.17;;
11646;SDS011;5880;52.342;9.662;2023-11-19T05:38:58;4.70;;;3.47;;
11646;SDS011;5880;52.342;9.662;2023-11-19T05:41:24;5.00;;;3.33;;
11646;SDS011;5880;52.342;9.662;2023-11-19T05:43:50;6.10;;;3.40;;
11646;SDS011;5880;52.342;9.662;2023-11-19T05:46:16;5.57;;;3.57;;
11646;SDS011;5880;52.342;9.662;2023-11-19T05:48:42;4.37;;;3.30;;
11646;SDS011;5880;52.342;9.662;2023-11-19T05:51:07;5.10;;;3.73;;
11646;SDS011;5880;52.342;9.662;2023-11-19T05:53:33;3.47;;;3.10;;
11646;SDS011;5880;52.342;9.662;2023-11-19T05:55:59;4.00;;;3.57;;
11646;SDS011;5880;52.342;9.662;2023-11-19T05:58:28;3.23;;;2.87;;
11646;SDS011;5880;52.342;9.662;2023-11-19T06:00:55;4.53;;;3.30;;
11646;SDS011;5880;52.342;9.662;2023-11-19T06:03:21;4.83;;;3.23;;
11646;SDS011;5880;52.342;9.662;2023-11-19T06:05:47;4.77;;;3.37;;
11646;SDS011;5880;52.342;9.662;2023-11-19T06:08:14;4.87;;;3.27;;
11646;SDS011;5880;52.342;9.662;2023-11-19T06:10:41;3.80;;;3.23;;
11646;SDS011;5880;52.342;9.662;2023-11-19T06:13:11;4.93;;;3.20;;
11646;SDS011;5880;52.342;9.662;2023-11-19T06:15:37;3.73;;;3.40;;
11646;SDS011;5880;52.342;9.662;2023-11-19T06:18:03;6.27;;;3.53;;
11646;SDS011;5880;52.342;9.662;2023-11-19T06:20:29;6.50;;;3.73;;
11646;SDS011;5880;52.342;9.662;2023-11-19T06:22:56;3.30;;;2.90;;
11646;SDS011;5880;52.342;9.662;2023-11-19T06:25:23;7.27;;;3.80;;
11646;SDS011;5880;52.342;9.662;2023-11-19T06:27:52;6.67;;;3.17;;
11646;SDS011;5880;52.342;9.662;2023-11-19T06:30:18;6.97;;;3.00;;
11646;SDS011;5880;52.342;9.662;2023-11-19T06:32:45;5.40;;;2.97;;
11646;SDS011;5880;52.342;9.662;2023-11-19T06:35:11;5.60;;;2.80;;
11646;SDS011;5880;52.342;9.662;2023-11-19T06:37:39;4.90;;;2.97;;
11646;SDS011;5880;52.342;9.662;2023-11-19T06:40:05;6.83;;;2.93;;
11646;SDS011;5880;52.342;9.662;2023-11-19T06:42:34;4.50;;;2.90;;
11646;SDS011;5880;52.342;9.662;2023-11-19T06:45:00;4.30;;;2.70;;
11646;SDS011;5880;52.342;9.662;2023-11-19T06:47:28;4.03;;;2.83;;
11646;SDS011;5880;52.342;9.662;2023-11-19T06:49:53;5.00;;;3.00;;
11646;SDS011;5880;52.342;9.662;2023-11-19T06:52:19;7.90;;;3.17;;
11646;SDS011;5880;52.342;9.662;2023-11-19T06:54:46;5.47;;;2.60;;
11646;SDS011;5880;52.342;9.662;2023-11-19T06:57:12;4.47;;;2.53;;
11646;SDS011;5880;52.342;9.662;2023-11-19T06:59:38;7.13;;;2.63;;
11646;SDS011;5880;52.342;9.662;2023-11-19T07:02:04;5.30;;;2.43;;
11646;SDS011;5880;52.342;9.662;2023-11-19T07:04:31;5.63;;;2.50;;
11646;SDS011;5880;52.342;9.662;2023-11-19T07:06:58;5.63;;;2.33;;
11646;SDS011;5880;52.342;9.662;2023-11-19T07:09:27;4.63;;;2.20;;
11646;SDS011;5880;52.342;9.662;2023-11-19T07:11:52;9.33;;;3.13;;
11646;SDS011;5880;52.342;9.662;2023-11-19T07:14:18;8.93;;;2.77;;
11646;SDS011;5880;52.342;9.662;2023-11-19T07:16:44;5.00;;;2.23;;
11646;SDS011;5880;52.342;9.662;2023-11-19T07:19:11;5.83;;;2.07;;
11646;SDS011;5880;52.342;9.662;2023-11-19T07:21:37;7.40;;;2.40;;
11646;SDS011;5880;52.342;9.662;2023-11-19T07:24:09;6.20;;;2.10;;
11646;SDS011;5880;52.342;9.662;2023-11-19T07:26:35;7.70;;;2.70;;
11646;SDS011;5880;52.342;9.662;2023-11-19T07:29:05;6.40;;;2.33;;
11646;SDS011;5880;52.342;9.662;2023-11-19T07:31:32;4.60;;;2.00;;
11646;SDS011;5880;52.342;9.662;2023-11-19T07:33:58;7.27;;;2.17;;
11646;SDS011;5880;52.342;9.662;2023-11-19T07:36:23;8.37;;;2.90;;
11646;SDS011;5880;52.342;9.662;2023-11-19T07:38:49;7.27;;;2.40;;
11646;SDS011;5880;52.342;9.662;2023-11-19T07:41:15;8.60;;;2.73;;
11646;SDS011;5880;52.342;9.662;2023-11-19T07:43:43;7.67;;;2.40;;
11646;SDS011;5880;52.342;9.662;2023-11-19T07:46:15;10.80;;;2.70;;
11646;SDS011;5880;52.342;9.662;2023-11-19T07:48:41;8.25;;;2.47;;
11646;SDS011;5880;52.342;9.662;2023-11-19T07:51:08;6.20;;;2.43;;
11646;SDS011;5880;52.342;9.662;2023-11-19T07:53:36;8.18;;;2.38;;
11646;SDS011;5880;52.342;9.662;2023-11-19T07:56:03;6.47;;;2.50;;
11646;SDS011;5880;52.342;9.662;2023-11-19T07:58:30;7.27;;;2.53;;
11646;SDS011;5880;52.342;9.662;2023-11-19T08:00:56;7.73;;;2.47;;
11646;SDS011;5880;52.342;9.662;2023-11-19T08:03:21;6.67;;;2.50;;
11646;SDS011;5880;52.342;9.662;2023-11-19T08:05:47;7.27;;;2.03;;
11646;SDS011;5880;52.342;9.662;2023-11-19T08:08:13;7.43;;;2.70;;
11646;SDS011;5880;52.342;9.662;2023-11-19T08:10:39;7.27;;;2.47;;
11646;SDS011;5880;52.342;9.662;2023-11-19T08:13:06;7.90;;;2.43;;
11646;SDS011;5880;52.342;9.662;2023-11-19T08:15:32;8.23;;;2.60;;
11646;SDS011;5880;52.342;9.662;2023-11-19T08:17:58;5.87;;;2.60;;
11646;SDS011;5880;52.342;9.662;2023-11-19T08:20:24;10.07;;;2.77;;
11646;SDS011;5880;52.342;9.662;2023-11-19T08:22:49;6.90;;;2.53;;
11646;SDS011;5880;52.342;9.662;2023-11-19T08:25:15;12.03;;;2.87;;
11646;SDS011;5880;52.342;9.662;2023-11-19T08:27:41;8.37;;;2.77;;
11646;SDS011;5880;52.342;9.662;2023-11-19T08:30:08;9.23;;;3.00;;
11646;SDS011;5880;52.342;9.662;2023-11-19T08:32:34;10.97;;;2.70;;
11646;SDS011;5880;52.342;9.662;2023-11-19T08:35:00;7.57;;;2.37;;
11646;SDS011;5880;52.342;9.662;2023-11-19T08:37:26;8.03;;;2.30;;
11646;SDS011;5880;52.342;9.662;2023-11-19T08:39:52;7.70;;;2.90;;
11646;SDS011;5880;52.342;9.662;2023-11-19T08:42:18;9.88;;;3.03;;
11646;SDS011;5880;52.342;9.662;2023-11-19T08:44:44;9.68;;;2.65;;
11646;SDS011;5880;52.342;9.662;2023-11-19T08:47:15;9.20;;;2.67;;
11646;SDS011;5880;52.342;9.662;2023-11-19T08:49:43;13.93;;;3.10;;
11646;SDS011;5880;52.342;9.662;2023-11-19T08:52:09;5.90;;;2.67;;
11646;SDS011;5880;52.342;9.662;2023-11-19T08:54:35;10.68;;;3.00;;
11646;SDS011;5880;52.342;9.662;2023-11-19T08:57:02;8.25;;;2.80;;
11646;SDS011;5880;52.342;9.662;2023-11-19T08:59:29;11.20;;;3.30;;
11646;SDS011;5880;52.342;9.662;2023-11-19T09:01:55;6.78;;;2.50;;
11646;SDS011;5880;52.342;9.662;2023-11-19T09:04:21;10.13;;;3.10;;
11646;SDS011;5880;52.342;9.662;2023-11-19T09:06:50;9.18;;;3.15;;
11646;SDS011;5880;52.342;9.662;2023-11-19T09:09:15;9.30;;;3.10;;
11646;SDS011;5880;52.342;9.662;2023-11-19T09:11:41;8.70;;;3.50;;
11646;SDS011;5880;52.342;9.662;2023-11-19T09:14:07;8.23;;;2.75;;
11646;SDS011;5880;52.342;9.662;2023-11-19T09:16:33;6.47;;;2.53;;
11646;SDS011;5880;52.342;9.662;2023-11-19T09:18:59;9.13;;;2.70;;
11646;SDS011;5880;52.342;9.662;2023-11-19T09:21:25;8.30;;;3.03;;
11646;SDS011;5880;52.342;9.662;2023-11-19T09:23:51;9.47;;;3.27;;
11646;SDS011;5880;52.342;9.662;2023-11-19T09:26:18;8.40;;;3.20;;
11646;SDS011;5880;52.342;9.662;2023-11-19T09:28:43;10.98;;;3.17;;
11646;SDS011;5880;52.342;9.662;2023-11-19T09:31:18;8.27;;;3.28;;
11646;SDS011;5880;52.342;9.662;2023-11-19T09:33:44;9.63;;;2.78;;
11646;SDS011;5880;52.342;9.662;2023-11-19T09:36:13;9.63;;;3.08;;
11646;SDS011;5880;52.342;9.662;2023-11-19T09:38:40;8.27;;;3.20;;
11646;SDS011;5880;52.342;9.662;2023-11-19T09:41:06;12.10;;;3.53;;
11646;SDS011;5880;52.342;9.662;2023-11-19T09:43:35;9.90;;;3.33;;
11646;SDS011;5880;52.342;9.662;2023-11-19T09:46:05;7.93;;;2.70;;
11646;SDS011;5880;52.342;9.662;2023-11-19T09:48:35;7.70;;;2.83;;
11646;SDS011;5880;52.342;9.662;2023-11-19T09:51:05;9.38;;;2.72;;
11646;SDS011;5880;52.342;9.662;2023-11-19T09:53:33;6.45;;;2.92;;
11646;SDS011;5880;52.342;9.662;2023-11-19T09:56:01;10.60;;;2.70;;
11646;SDS011;5880;52.342;9.662;2023-11-19T09:58:29;10.80;;;3.05;;
11646;SDS011;5880;52.342;9.662;2023-11-19T10:00:56;10.32;;;2.88;;
11646;SDS011;5880;52.342;9.662;2023-11-19T10:03:27;6.85;;;2.78;;
11646;SDS011;5880;52.342;9.662;2023-11-19T10:05:59;12.75;;;3.80;;
11646;SDS011;5880;52.342;9.662;2023-11-19T10:08:27;9.23;;;2.72;;
11646;SDS011;5880;52.342;9.662;2023-11-19T10:10:53;11.75;;;2.92;;
11646;SDS011;5880;52.342;9.662;2023-11-19T10:13:18;13.25;;;2.90;;
11646;SDS011;5880;52.342;9.662;2023-11-19T10:15:44;10.18;;;3.25;;
11646;SDS011;5880;52.342;9.662;2023-11-19T10:18:14;8.68;;;2.78;;
11646;SDS011;5880;52.342;9.662;2023-11-19T10:20:40;8.95;;;2.95;;
11646;SDS011;5880;52.342;9.662;2023-11-19T10:23:07;9.63;;;2.60;;
11646;SDS011;5880;52.342;9.662;2023-11-19T10:25:33;8.88;;;2.55;;
11646;SDS011;5880;52.342;9.662;2023-11-19T10:27:59;11.43;;;3.00;;
11646;SDS011;5880;52.342;9.662;2023-11-19T10:30:26;7.78;;;2.47;;
11646;SDS011;5880;52.342;9.662;2023-11-19T10:33:12;10.25;;;3.00;;
11646;SDS011;5880;52.342;9.662;2023-11-19T10:35:55;9.88;;;2.83;;
11646;SDS011;5880;52.342;9.662;2023-11-19T10:38:22;10.57;;;3.08;;
11646;SDS011;5880;52.342;9.662;2023-11-19T10:40:49;8.50;;;2.83;;
11646;SDS011;5880;52.342;9.662;2023-11-19T10:43:17;9.18;;;2.47;;
11646;SDS011;5880;52.342;9.662;2023-11-19T10:45:44;9.38;;;2.92;;
11646;SDS011;5880;52.342;9.662;2023-11-19T10:48:09;8.15;;;2.80;;
11646;SDS011;5880;52.342;9.662;2023-11-19T10:50:37;11.68;;;2.90;;
11646;SDS011;5880;52.342;9.662;2023-11-19T10:53:06;6.90;;;2.65;;
11646;SDS011;5880;52.342;9.662;2023-11-19T10:55:34;7.07;;;2.85;;
11646;SDS011;5880;52.342;9.662;2023-11-19T10:58:04;8.52;;;2.58;;
11646;SDS011;5880;52.342;9.662;2023-11-19T11:00:47;6.82;;;2.50;;
11646;SDS011;5880;52.342;9.662;2023-11-19T11:03:20;8.32;;;2.63;;
11646;SDS011;5880;52.342;9.662;2023-11-19T11:05:51;10.25;;;3.08;;
11646;SDS011;5880;52.342;9.662;2023-11-19T11:08:18;7.30;;;2.60;;
11646;SDS011;5880;52.342;9.662;2023-11-19T11:10:48;8.40;;;2.63;;
11646;SDS011;5880;52.342;9.662;2023-11-19T11:13:19;9.73;;;2.75;;
11646;SDS011;5880;52.342;9.662;2023-11-19T11:15:52;9.27;;;3.10;;
11646;SDS011;5880;52.342;9.662;2023-11-19T11:18:23;7.43;;;2.65;;
11646;SDS011;5880;52.342;9.662;2023-11-19T11:21:25;10.55;;;2.90;;
11646;SDS011;5880;52.342;9.662;2023-11-19T11:26:57;6.35;;;2.58;;
11646;SDS011;5880;52.342;9.662;2023-11-19T11:30:13;9.55;;;2.88;;
11646;SDS011;5880;52.342;9.662;2023-11-19T11:32:56;8.65;;;3.45;;
11646;SDS011;5880;52.342;9.662;2023-11-19T11:36:10;7.30;;;2.97;;
11646;SDS011;5880;52.342;9.662;2023-11-19T11:38:47;9.30;;;2.58;;
11646;SDS011;5880;52.342;9.662;2023-11-19T11:41:17;8.50;;;2.65;;
11646;SDS011;5880;52.342;9.662;2023-11-19T11:43:49;9.10;;;3.10;;
11646;SDS011;5880;52.342;9.662;2023-11-19T11:59:49;9.15;;;3.05;;
11646;SDS011;5880;52.342;9.662;2023-11-19T12:02:17;10.68;;;3.05;;
11646;SDS011;5880;52.342;9.662;2023-11-19T12:04:47;9.55;;;2.97;;
11646;SDS011;5880;52.342;9.662;2023-11-19T12:07:21;10.38;;;3.28;;
11646;SDS011;5880;52.342;9.662;2023-11-19T12:09:52;7.57;;;3.20;;
11646;SDS011;5880;52.342;9.662;2023-11-19T12:12:36;6.05;;;2.65;;
11646;SDS011;5880;52.342;9.662;2023-11-19T12:15:06;8.50;;;2.90;;
11646;SDS011;5880;52.342;9.662;2023-11-19T12:20:05;11.50;;;2.92;;
11646;SDS011;5880;52.342;9.662;2023-11-19T12:22:39;9.93;;;2.92;;
11646;SDS011;5880;52.342;9.662;2023-11-19T12:25:10;9.25;;;2.67;;
11646;SDS011;5880;52.342;9.662;2023-11-19T12:27:41;9.77;;;2.88;;
11646;SDS011;5880;52.342;9.662;2023-11-19T12:30:24;9.05;;;3.13;;
11646;SDS011;5880;52.342;9.662;2023-11-19T12:32:50;9.80;;;3.05;;
11646;SDS011;5880;52.342;9.662;2023-11-19T12:35:20;11.23;;;2.85;;
11646;SDS011;5880;52.342;9.662;2023-11-19T12:37:48;10.82;;;3.17;;
11646;SDS011;5880;52.342;9.662;2023-11-19T12:40:19;9.57;;;3.08;;
11646;SDS011;5880;52.342;9.662;2023-11-19T12:42:50;11.23;;;3.22;;
11646;SDS011;5880;52.342;9.662;2023-11-19T12:45:18;7.63;;;2.58;;
11646;SDS011;5880;52.342;9.662;2023-11-19T12:47:45;6.15;;;2.47;;
11646;SDS011;5880;52.342;9.662;2023-11-19T12:50:12;8.77;;;2.90;;
11646;SDS011;5880;52.342;9.662;2023-11-19T12:52:39;8.65;;;2.92;;
11646;SDS011;5880;52.342;9.662;2023-11-19T12:55:05;11.13;;;2.83;;
11646;SDS011;5880;52.342;9.662;2023-11-19T12:57:55;10.52;;;2.92;;
11646;SDS011;5880;52.342;9.662;2023-11-19T13:00:23;10.10;;;2.88;;
11646;SDS011;5880;52.342;9.662;2023-11-19T13:05:33;8.30;;;2.60;;
11646;SDS011;5880;52.342;9.662;2023-11-19T13:08:00;10.60;;;3.15;;
11646;SDS011;5880;52.342;9.662;2023-11-19T13:10:31;9.95;;;2.58;;
11646;SDS011;5880;52.342;9.662;2023-11-19T13:13:08;7.43;;;2.65;;
11646;SDS011;5880;52.342;9.662;2023-11-19T13:15:34;7.30;;;2.47;;
11646;SDS011;5880;52.342;9.662;2023-11-19T13:18:00;9.40;;;2.58;;
11646;SDS011;5880;52.342;9.662;2023-11-19T13:20:27;7.70;;;2.40;;
11646;SDS011;5880;52.342;9.662;2023-11-19T13:23:00;7.90;;;2.63;;
11646;SDS011;5880;52.342;9.662;2023-11-19T13:25:28;8.15;;;2.92;;
11646;SDS011;5880;52.342;9.662;2023-11-19T13:27:55;8.73;;;2.97;;
11646;SDS011;5880;52.342;9.662;2023-11-19T13:30:22;8.02;;;2.63;;
11646;SDS011;5880;52.342;9.662;2023-11-19T13:32:49;10.20;;;2.97;;
11646;SDS011;5880;52.342;9.662;2023-11-19T13:35:17;10.15;;;2.75;;
11646;SDS011;5880;52.342;9.662;2023-11-19T13:37:44;10.40;;;2.83;;
11646;SDS011;5880;52.342;9.662;2023-11-19T13:40:11;8.60;;;2.97;;
11646;SDS011;5880;52.342;9.662;2023-11-19T13:42:40;7.72;;;2.80;;
11646;SDS011;5880;52.342;9.662;2023-11-19T13:45:11;11.05;;;2.38;;
11646;SDS011;5880;52.342;9.662;2023-11-19T13:47:41;8.70;;;2.78;;
11646;SDS011;5880;52.342;9.662;2023-11-19T13:50:09;10.18;;;3.00;;
11646;SDS011;5880;52.342;9.662;2023-11-19T13:52:37;11.02;;;2.70;;
11646;SDS011;5880;52.342;9.662;2023-11-19T13:55:05;11.60;;;3.00;;
11646;SDS011;5880;52.342;9.662;2023-11-19T13:57:33;7.68;;;2.70;;
11646;SDS011;5880;52.342;9.662;2023-11-19T14:00:00;10.55;;;2.70;;
11646;SDS011;5880;52.342;9.662;2023-11-19T14:02:44;9.00;;;2.72;;
11646;SDS011;5880;52.342;9.662;2023-11-19T14:05:14;9.27;;;2.80;;
11646;SDS011;5880;52.342;9.662;2023-11-19T14:07:44;9.10;;;2.90;;
11646;SDS011;5880;52.342;9.662;2023-11-19T14:10:13;9.15;;;2.95;;
11646;SDS011;5880;52.342;9.662;2023-11-19T14:12:39;11.82;;;3.05;;
11646;SDS011;5880;52.342;9.662;2023-11-19T14:15:06;8.20;;;2.85;;
11646;SDS011;5880;52.342;9.662;2023-11-19T14:17:34;7.05;;;2.63;;
11646;SDS011;5880;52.342;9.662;2023-11-19T14:20:04;10.18;;;2.70;;
11646;SDS011;5880;52.342;9.662;2023-11-19T14:22:38;9.05;;;2.65;;
11646;SDS011;5880;52.342;9.662;2023-11-19T14:25:05;11.80;;;3.15;;
11646;SDS011;5880;52.342;9.662;2023-11-19T14:27:35;7.53;;;2.65;;
11646;SDS011;5880;52.342;9.662;2023-11-19T14:30:05;9.10;;;2.80;;
11646;SDS011;5880;52.342;9.662;2023-11-19T14:32:36;7.47;;;2.22;;
11646;SDS011;5880;52.342;9.662;2023-11-19T14:35:03;8.05;;;3.13;;
11646;SDS011;5880;52.342;9.662;2023-11-19T14:37:30;9.02;;;2.75;;
11646;SDS011;5880;52.342;9.662;2023-11-19T14:39:58;8.60;;;3.13;;
11646;SDS011;5880;52.342;9.662;2023-11-19T14:42:25;5.68;;;2.60;;
11646;SDS011;5880;52.342;9.662;2023-11-19T14:44:51;10.13;;;2.97;;
11646;SDS011;5880;52.342;9.662;2023-11-19T14:47:18;10.52;;;3.53;;
11646;SDS011;5880;52.342;9.662;2023-11-19T14:49:45;10.05;;;3.13;;
11646;SDS011;5880;52.342;9.662;2023-11-19T14:52:11;12.27;;;2.75;;
11646;SDS011;5880;52.342;9.662;2023-11-19T14:54:37;8.27;;;2.75;;
11646;SDS011;5880;52.342;9.662;2023-11-19T14:57:03;8.77;;;2.55;;
11646;SDS011;5880;52.342;9.662;2023-11-19T14:59:31;8.15;;;2.58;;
11646;SDS011;5880;52.342;9.662;2023-11-19T15:01:58;10.85;;;2.70;;
11646;SDS011;5880;52.342;9.662;2023-11-19T15:04:24;9.67;;;2.80;;
11646;SDS011;5880;52.342;9.662;2023-11-19T15:06:50;7.97;;;2.33;;
11646;SDS011;5880;52.342;9.662;2023-11-19T15:09:16;9.47;;;3.00;;
11646;SDS011;5880;52.342;9.662;2023-11-19T15:11:45;7.35;;;2.45;;
11646;SDS011;5880;52.342;9.662;2023-11-19T15:14:12;6.07;;;2.57;;
11646;SDS011;5880;52.342;9.662;2023-11-19T15:16:43;6.33;;;3.00;;
11646;SDS011;5880;52.342;9.662;2023-11-19T15:19:11;9.73;;;3.07;;
11646;SDS011;5880;52.342;9.662;2023-11-19T15:21:39;7.03;;;2.80;;
11646;SDS011;5880;52.342;9.662;2023-11-19T15:24:10;6.47;;;3.00;;
11646;SDS011;5880;52.342;9.662;2023-11-19T15:26:37;9.83;;;3.03;;
11646;SDS011;5880;52.342;9.662;2023-11-19T15:29:03;9.90;;;3.20;;